Time;durP1;ratioP1;P1;durP2;ratioP2;P2;SDS_P1;SDS_P2;PMS_P1;PMS_P2;Temp;Humidity;BMP_temperature;BMP_pressure;BME280_temperature;BME280_humidity;BME280_pressure;Samples;Min_cycle;Max_cycle;Signal;HPM_P1;HPM_P2
2024/01/01 00:02:20;;;;;;;;;;;19.90;61.90;;;;;;5056334;28;19921;-68
2024/01/01 00:04:45;;;;;;;;;;;19.90;61.90;;;;;;5074558;28;19925;-66
2024/01/01 00:07:11;;;;;;;;;;;19.90;61.60;;;;;;5085815;28;19928;-67
2024/01/01 00:09:36;;;;;;;;;;;19.90;61.70;;;;;;5094189;28;20014;-67
2024/01/01 00:12:02;;;;;;;;;;;19.90;61.60;;;;;;5075802;28;19928;-68
2024/01/01 00:14:27;;;;;;;;;;;19.90;61.70;;;;;;5076766;28;19935;-68
2024/01/01 00:16:53;;;;;;;;;;;19.90;61.60;;;;;;5075790;28;20018;-68
2024/01/01 00:19:18;;;;;;;;;;;19.80;61.60;;;;;;5075882;28;19928;-67
2024/01/01 00:21:44;;;;;;;;;;;19.80;61.60;;;;;;5076637;28;19924;-68
2024/01/01 00:24:12;;;;;;;;;;;19.80;61.60;;;;;;5075356;28;19924;-68
2024/01/01 00:26:38;;;;;;;;;;;19.80;61.60;;;;;;5054236;28;19970;-68
2024/01/01 00:29:03;;;;;;;;;;;19.80;61.50;;;;;;5072862;28;19924;-68
2024/01/01 00:31:30;;;;;;;;;;;19.80;61.50;;;;;;5056272;28;19973;-68
2024/01/01 00:33:56;;;;;;;;;;;19.80;61.50;;;;;;5054666;28;19924;-68
2024/01/01 00:36:24;;;;;;;;;;;19.70;61.40;;;;;;5073517;28;19931;-68
2024/01/01 00:38:51;;;;;;;;;;;19.70;61.40;;;;;;5056002;28;19925;-68
2024/01/01 00:41:16;;;;;;;;;;;19.70;61.40;;;;;;5055477;28;19999;-68
2024/01/01 00:43:43;;;;;;;;;;;19.70;61.40;;;;;;5054461;28;20007;-68
2024/01/01 00:46:08;;;;;;;;;;;19.70;61.40;;;;;;5055444;28;19924;-68
2024/01/01 00:48:34;;;;;;;;;;;19.70;61.40;;;;;;5055594;28;19965;-68
2024/01/01 00:50:59;;;;;;;;;;;19.70;61.40;;;;;;5055207;28;20377;-68
2024/01/01 00:53:25;;;;;;;;;;;19.70;61.40;;;;;;5058388;28;19925;-68
2024/01/01 00:55:50;;;;;;;;;;;19.70;61.40;;;;;;5059316;28;20384;-68
2024/01/01 00:58:16;;;;;;;;;;;19.60;61.20;;;;;;5071238;28;19924;-67
2024/01/01 01:00:41;;;;;;;;;;;19.60;61.30;;;;;;5066893;28;19935;-68
2024/01/01 01:03:07;;;;;;;;;;;19.60;61.30;;;;;;5074920;28;19924;-68
2024/01/01 01:05:32;;;;;;;;;;;19.60;61.20;;;;;;5093648;28;19924;-68
2024/01/01 01:07:58;;;;;;;;;;;19.60;61.20;;;;;;5093277;28;19920;-67
2024/01/01 01:10:24;;;;;;;;;;;19.60;61.20;;;;;;5075250;28;19950;-68
2024/01/01 01:12:53;;;;;;;;;;;19.60;61.20;;;;;;5075294;28;20377;-68
2024/01/01 01:15:19;;;;;;;;;;;19.60;61.20;;;;;;5075170;28;19927;-67
2024/01/01 01:17:44;;;;;;;;;;;19.60;61.20;;;;;;5075031;28;19928;-67
2024/01/01 01:20:10;;;;;;;;;;;19.60;61.10;;;;;;5074788;28;19930;-68
2024/01/01 01:22:36;;;;;;;;;;;19.60;61.20;;;;;;5092468;28;19931;-68
2024/01/01 01:25:04;;;;;;;;;;;19.60;61.10;;;;;;5074844;28;19924;-68
2024/01/01 01:27:29;;;;;;;;;;;19.50;61.10;;;;;;5093480;28;20360;-68
2024/01/01 01:29:55;;;;;;;;;;;19.50;61.10;;;;;;5092744;28;20046;-68
2024/01/01 01:32:20;;;;;;;;;;;19.50;61.00;;;;;;5075006;28;19931;-68
2024/01/01 01:34:46;;;;;;;;;;;19.50;61.00;;;;;;5093169;28;20016;-68
2024/01/01 01:37:12;;;;;;;;;;;19.50;61.00;;;;;;5070743;28;20100;-68
2024/01/01 01:39:37;;;;;;;;;;;19.50;61.00;;;;;;5055004;28;20304;-68
2024/01/01 01:42:03;;;;;;;;;;;19.50;61.60;;;;;;5055146;28;19924;-68
2024/01/01 01:44:28;;;;;;;;;;;19.50;61.00;;;;;;5054890;28;20292;-67
2024/01/01 01:46:54;;;;;;;;;;;19.50;61.00;;;;;;5054821;28;20261;-68
2024/01/01 01:49:19;;;;;;;;;;;19.50;60.90;;;;;;5075881;28;20375;-68
2024/01/01 01:51:47;;;;;;;;;;;19.50;60.90;;;;;;5091557;28;19928;-67
2024/01/01 01:54:13;;;;;;;;;;;19.50;60.90;;;;;;5074654;28;19924;-68
2024/01/01 01:56:38;;;;;;;;;;;19.50;60.90;;;;;;5093184;28;19931;-68
2024/01/01 01:59:04;;;;;;;;;;;19.50;60.90;;;;;;5092270;28;19924;-68
2024/01/01 02:01:29;;;;;;;;;;;19.50;60.90;;;;;;5058300;28;19924;-68
2024/01/01 02:03:55;;;;;;;;;;;19.40;60.80;;;;;;5093001;28;20354;-68
2024/01/01 02:06:20;;;;;;;;;;;19.40;60.80;;;;;;5057720;28;19920;-67
2024/01/01 02:08:46;;;;;;;;;;;19.40;60.80;;;;;;5074265;28;19931;-67
2024/01/01 02:11:15;;;;;;;;;;;19.40;60.70;;;;;;5058187;28;19928;-68
2024/01/01 02:13:40;;;;;;;;;;;19.40;60.70;;;;;;5058003;28;19920;-67
2024/01/01 02:16:06;;;;;;;;;;;19.40;60.80;;;;;;5092631;28;20303;-68
2024/01/01 02:18:32;;;;;;;;;;;19.40;61.30;;;;;;5074682;28;20390;-68
2024/01/01 02:20:57;;;;;;;;;;;19.40;60.70;;;;;;5074133;28;19920;-67
2024/01/01 02:23:24;;;;;;;;;;;19.40;60.60;;;;;;5074810;28;19983;-68
2024/01/01 02:25:50;;;;;;;;;;;19.40;60.60;;;;;;5092605;28;19924;-68
2024/01/01 02:28:15;;;;;;;;;;;19.30;60.60;;;;;;5074214;28;19931;-68
2024/01/01 02:30:41;;;;;;;;;;;19.30;60.60;;;;;;5074786;28;19947;-67
2024/01/01 02:33:07;;;;;;;;;;;19.30;60.60;;;;;;5068143;28;19974;-67
2024/01/01 02:35:33;;;;;;;;;;;19.30;60.50;;;;;;5071648;28;19939;-68
2024/01/01 02:37:59;;;;;;;;;;;19.30;60.60;;;;;;5055314;28;19931;-68
2024/01/01 02:40:24;;;;;;;;;;;19.30;60.60;;;;;;5037640;28;19929;-69
2024/01/01 02:42:50;;;;;;;;;;;19.30;60.50;;;;;;5056081;28;19925;-68
2024/01/01 02:45:15;;;;;;;;;;;19.30;60.50;;;;;;5039508;28;20430;-67
2024/01/01 02:47:43;;;;;;;;;;;19.30;60.50;;;;;;5037792;28;20007;-68
2024/01/01 02:50:08;;;;;;;;;;;19.30;60.50;;;;;;5038095;28;19974;-67
2024/01/01 02:52:34;;;;;;;;;;;19.30;60.50;;;;;;5037723;28;19925;-67
2024/01/01 02:54:59;;;;;;;;;;;19.30;60.50;;;;;;5037246;28;19929;-67
2024/01/01 02:57:25;;;;;;;;;;;19.20;60.40;;;;;;5037783;28;19928;-67
2024/01/01 02:59:51;;;;;;;;;;;19.30;60.40;;;;;;5058166;28;20376;-67
2024/01/01 03:02:18;;;;;;;;;;;19.20;60.30;;;;;;5057303;28;19931;-67
2024/01/01 03:04:44;;;;;;;;;;;19.20;60.30;;;;;;5057602;28;19928;-68
2024/01/01 03:07:09;;;;;;;;;;;19.20;60.30;;;;;;5055498;28;20372;-68
2024/01/01 03:09:35;;;;;;;;;;;19.20;60.30;;;;;;5055257;28;19947;-68
2024/01/01 03:12:00;;;;;;;;;;;19.20;60.30;;;;;;5037792;28;19971;-67
2024/01/01 03:14:26;;;;;;;;;;;19.20;60.30;;;;;;5038052;28;19964;-67
2024/01/01 03:16:51;;;;;;;;;;;19.20;60.30;;;;;;5037026;28;20403;-68
2024/01/01 03:19:17;;;;;;;;;;;19.20;60.20;;;;;;5093263;28;19977;-68
2024/01/01 03:21:42;;;;;;;;;;;19.20;60.20;;;;;;5077481;28;19923;-68
2024/01/01 03:24:08;;;;;;;;;;;19.20;60.30;;;;;;5076903;28;20035;-67
2024/01/01 03:26:34;;;;;;;;;;;19.20;60.20;;;;;;5095807;28;19924;-68
2024/01/01 03:29:00;;;;;;;;;;;19.10;60.10;;;;;;5094890;28;19981;-68
2024/01/01 03:31:25;;;;;;;;;;;19.10;60.10;;;;;;5077320;28;19924;-68
2024/01/01 03:33:51;;;;;;;;;;;19.10;60.10;;;;;;5095203;28;19924;-68
2024/01/01 03:36:16;;;;;;;;;;;19.10;60.10;;;;;;5110455;28;19931;-68
2024/01/01 03:38:42;;;;;;;;;;;19.10;60.10;;;;;;5096485;28;20374;-68
2024/01/01 03:41:07;;;;;;;;;;;19.10;60.00;;;;;;5095811;28;19930;-68
2024/01/01 03:43:33;;;;;;;;;;;19.10;60.10;;;;;;5095129;28;19924;-68
2024/01/01 03:45:59;;;;;;;;;;;19.10;60.10;;;;;;5093971;28;19928;-68
2024/01/01 03:48:24;;;;;;;;;;;19.10;60.10;;;;;;5077703;28;20281;-68
2024/01/01 03:50:50;;;;;;;;;;;19.10;60.20;;;;;;5076169;28;19928;-68
2024/01/01 03:53:15;;;;;;;;;;;19.10;60.10;;;;;;5074672;28;19928;-68
2024/01/01 03:55:41;;;;;;;;;;;19.10;60.10;;;;;;5076420;28;19924;-68
2024/01/01 03:58:06;;;;;;;;;;;19.10;60.20;;;;;;5094422;28;20028;-68
2024/01/01 04:00:32;;;;;;;;;;;19.10;60.10;;;;;;5094706;28;19931;-68
2024/01/01 04:02:57;;;;;;;;;;;19.10;60.10;;;;;;5076884;28;19924;-68
2024/01/01 04:05:23;;;;;;;;;;;19.10;60.10;;;;;;5076474;28;20390;-68
2024/01/01 04:07:48;;;;;;;;;;;19.10;60.10;;;;;;5094485;28;19931;-69
2024/01/01 04:10:14;;;;;;;;;;;19.10;60.10;;;;;;5094824;28;20291;-69
2024/01/01 04:12:39;;;;;;;;;;;19.10;60.10;;;;;;5093958;28;20339;-68
2024/01/01 04:15:05;;;;;;;;;;;19.10;60.10;;;;;;5076113;28;19930;-68
2024/01/01 04:17:31;;;;;;;;;;;19.10;60.10;;;;;;5075883;28;19924;-68
2024/01/01 04:19:57;;;;;;;;;;;19.10;60.10;;;;;;5093887;28;20019;-68
2024/01/01 04:22:22;;;;;;;;;;;19.10;60.10;;;;;;5074803;28;20007;-68
2024/01/01 04:24:48;;;;;;;;;;;19.10;60.10;;;;;;5076625;28;19946;-68
2024/01/01 04:27:13;;;;;;;;;;;19.10;60.10;;;;;;5075849;28;19924;-68
2024/01/01 04:29:39;;;;;;;;;;;19.20;60.20;;;;;;5076177;28;19963;-68
2024/01/01 04:32:04;;;;;;;;;;;19.20;60.10;;;;;;5075368;28;19925;-68
2024/01/01 04:34:30;;;;;;;;;;;19.20;60.20;;;;;;5075198;28;19986;-68
2024/01/01 04:36:55;;;;;;;;;;;19.20;60.10;;;;;;5075919;28;19935;-68
2024/01/01 04:39:21;;;;;;;;;;;19.20;60.10;;;;;;5075586;28;19924;-68
2024/01/01 04:41:46;;;;;;;;;;;19.20;60.10;;;;;;5094305;28;19928;-69
2024/01/01 04:44:12;;;;;;;;;;;19.20;60.10;;;;;;5094019;28;20237;-69
2024/01/01 04:46:37;;;;;;;;;;;19.30;60.10;;;;;;5093776;28;20003;-68
2024/01/01 04:49:03;;;;;;;;;;;19.30;60.70;;;;;;5093834;28;19924;-68
2024/01/01 04:51:28;;;;;;;;;;;19.30;60.10;;;;;;5065464;28;20005;-68
2024/01/01 04:53:54;;;;;;;;;;;19.30;60.10;;;;;;5054503;28;19925;-68
2024/01/01 04:56:21;;;;;;;;;;;19.30;60.10;;;;;;5055360;28;19929;-68
2024/01/01 04:58:47;;;;;;;;;;;19.30;60.00;;;;;;5055282;28;20315;-68
2024/01/01 05:01:13;;;;;;;;;;;19.40;60.10;;;;;;5076879;28;19924;-68
2024/01/01 05:03:38;;;;;;;;;;;19.40;60.10;;;;;;5072615;28;19931;-68
2024/01/01 05:06:04;;;;;;;;;;;19.40;60.10;;;;;;5055408;28;20014;-68
2024/01/01 05:08:29;;;;;;;;;;;19.40;60.00;;;;;;5055111;28;19924;-68
2024/01/01 05:10:55;;;;;;;;;;;19.40;60.00;;;;;;5055383;28;19931;-69
2024/01/01 05:13:20;;;;;;;;;;;19.40;60.00;;;;;;5073433;28;19924;-68
2024/01/01 05:15:46;;;;;;;;;;;19.50;60.00;;;;;;5072881;28;20398;-68
2024/01/01 05:18:11;;;;;;;;;;;19.50;60.00;;;;;;5054943;28;19928;-68
2024/01/01 05:20:37;;;;;;;;;;;19.50;60.00;;;;;;5055628;28;19978;-68
2024/01/01 05:23:03;;;;;;;;;;;19.50;60.00;;;;;;5054053;28;19924;-68
2024/01/01 05:25:28;;;;;;;;;;;19.50;60.00;;;;;;5055175;28;19924;-68
2024/01/01 05:27:54;;;;;;;;;;;19.50;60.00;;;;;;5073260;28;19924;-69
2024/01/01 05:30:19;;;;;;;;;;;19.50;60.00;;;;;;5055067;28;19928;-68
2024/01/01 05:32:44;;;;;;;;;;;19.50;60.00;;;;;;5055143;28;20406;-68
2024/01/01 05:35:10;;;;;;;;;;;19.50;60.00;;;;;;5054938;28;19933;-68
2024/01/01 05:37:35;;;;;;;;;;;19.50;59.90;;;;;;5054294;28;20449;-68
2024/01/01 05:40:01;;;;;;;;;;;19.50;59.90;;;;;;5072960;28;20368;-68
2024/01/01 05:42:28;;;;;;;;;;;19.50;59.90;;;;;;5055614;28;20011;-68
2024/01/01 05:44:53;;;;;;;;;;;19.60;60.00;;;;;;5054247;28;20016;-69
2024/01/01 05:47:19;;;;;;;;;;;19.60;60.00;;;;;;5073141;28;20033;-69
2024/01/01 05:49:44;;;;;;;;;;;19.60;59.90;;;;;;5053784;28;19931;-67
2024/01/01 05:52:10;;;;;;;;;;;19.60;60.00;;;;;;5072219;28;19951;-67
2024/01/01 05:54:36;;;;;;;;;;;19.60;59.90;;;;;;5054962;28;19928;-68
2024/01/01 05:57:01;;;;;;;;;;;19.60;59.90;;;;;;5072283;28;19925;-67
2024/01/01 05:59:27;;;;;;;;;;;19.60;59.90;;;;;;5054741;28;19924;-68
2024/01/01 06:01:52;;;;;;;;;;;19.60;59.90;;;;;;5054732;28;19920;-67
2024/01/01 06:04:17;;;;;;;;;;;19.60;59.90;;;;;;5054599;28;19993;-68
2024/01/01 06:06:43;;;;;;;;;;;19.60;59.90;;;;;;5072719;28;19920;-67
2024/01/01 06:09:09;;;;;;;;;;;19.60;59.90;;;;;;5056373;28;19924;-68
2024/01/01 06:11:34;;;;;;;;;;;19.60;59.80;;;;;;5099038;28;20392;-68
2024/01/01 06:14:00;;;;;;;;;;;19.60;59.80;;;;;;5099112;28;20386;-68
2024/01/01 06:16:25;;;;;;;;;;;19.60;59.80;;;;;;5099312;28;20400;-68
2024/01/01 06:18:51;;;;;;;;;;;19.60;59.80;;;;;;5101428;28;19924;-69
2024/01/01 06:21:16;;;;;;;;;;;19.70;59.80;;;;;;5099167;28;20008;-68
2024/01/01 06:23:45;;;;;;;;;;;19.70;59.90;;;;;;5099056;28;19923;-68
2024/01/01 06:26:11;;;;;;;;;;;19.70;59.90;;;;;;5116501;28;20324;-68
2024/01/01 06:28:36;;;;;;;;;;;19.70;59.80;;;;;;5117110;28;20368;-68
2024/01/01 06:31:02;;;;;;;;;;;19.70;59.90;;;;;;5098698;28;19924;-68
2024/01/01 06:33:29;;;;;;;;;;;19.70;59.80;;;;;;5098319;28;19920;-68
2024/01/01 06:35:55;;;;;;;;;;;19.70;59.80;;;;;;5093593;28;19938;-67
2024/01/01 06:38:20;;;;;;;;;;;19.70;59.80;;;;;;5085194;28;19928;-68
2024/01/01 06:40:46;;;;;;;;;;;19.70;59.80;;;;;;5074207;28;19932;-68
2024/01/01 06:43:12;;;;;;;;;;;19.70;59.80;;;;;;5076209;28;19928;-68
2024/01/01 06:45:37;;;;;;;;;;;19.70;59.80;;;;;;5059419;28;19924;-68
2024/01/01 06:48:03;;;;;;;;;;;19.70;59.80;;;;;;5057491;28;20506;-68
2024/01/01 06:50:28;;;;;;;;;;;19.70;59.80;;;;;;5058310;28;19925;-68
2024/01/01 06:52:54;;;;;;;;;;;19.70;59.80;;;;;;5057169;28;20338;-68
2024/01/01 06:55:22;;;;;;;;;;;19.70;59.70;;;;;;5058328;28;19928;-68
2024/01/01 06:57:47;;;;;;;;;;;19.70;59.70;;;;;;5057971;28;19982;-68
2024/01/01 07:00:13;;;;;;;;;;;19.70;59.70;;;;;;5057171;28;19956;-68
2024/01/01 07:02:38;;;;;;;;;;;19.70;59.70;;;;;;5057637;28;19929;-68
2024/01/01 07:05:04;;;;;;;;;;;19.70;59.70;;;;;;5058027;28;20427;-68
2024/01/01 07:07:29;;;;;;;;;;;19.70;59.70;;;;;;5087076;28;19942;-68
2024/01/01 07:09:55;;;;;;;;;;;19.70;59.70;;;;;;5081965;28;19931;-68
2024/01/01 07:12:23;;;;;;;;;;;19.70;59.70;;;;;;5095356;28;20437;-68
2024/01/01 07:14:48;;;;;;;;;;;19.80;59.80;;;;;;5077507;28;20368;-68
2024/01/01 07:17:14;;;;;;;;;;;19.80;59.70;;;;;;5076964;28;19959;-68
2024/01/01 07:19:39;;;;;;;;;;;19.80;59.70;;;;;;5077577;28;19924;-68
2024/01/01 07:22:05;;;;;;;;;;;19.80;59.70;;;;;;5076078;28;19924;-68
2024/01/01 07:24:30;;;;;;;;;;;19.80;59.70;;;;;;5094945;28;19927;-69
2024/01/01 07:26:57;;;;;;;;;;;19.80;59.70;;;;;;5077176;28;19924;-69
2024/01/01 07:29:22;;;;;;;;;;;19.80;59.70;;;;;;5077063;28;20422;-68
2024/01/01 07:31:48;;;;;;;;;;;19.80;59.70;;;;;;5077274;28;19924;-68
2024/01/01 07:34:18;;;;;;;;;;;19.80;59.70;;;;;;5077646;28;19931;-68
2024/01/01 07:36:43;;;;;;;;;;;19.80;59.60;;;;;;5072805;28;19925;-68
2024/01/01 07:39:09;;;;;;;;;;;19.80;59.60;;;;;;5073609;28;19931;-68
2024/01/01 07:41:34;;;;;;;;;;;19.80;59.70;;;;;;5070157;28;19924;-68
2024/01/01 07:44:00;;;;;;;;;;;19.80;59.60;;;;;;5054191;28;19936;-68
2024/01/01 07:46:25;;;;;;;;;;;19.80;59.60;;;;;;5053782;28;19928;-68
2024/01/01 07:48:51;;;;;;;;;;;19.80;59.70;;;;;;5054230;28;19947;-67
2024/01/01 07:51:16;;;;;;;;;;;19.80;59.60;;;;;;5052949;28;19924;-67
2024/01/01 07:53:42;;;;;;;;;;;19.80;59.60;;;;;;5056342;28;19980;-69
2024/01/01 07:56:07;;;;;;;;;;;19.80;59.60;;;;;;5066785;28;19924;-67
2024/01/01 07:58:33;;;;;;;;;;;19.80;59.60;;;;;;5051501;28;19928;-67
2024/01/01 08:00:58;;;;;;;;;;;19.80;59.70;;;;;;5051895;28;19925;-64
2024/01/01 08:03:25;;;;;;;;;;;19.80;59.70;;;;;;5057546;28;19962;-65
2024/01/01 08:05:51;;;;;;;;;;;19.90;59.80;;;;;;5054703;28;19935;-64
2024/01/01 08:08:16;;;;;;;;;;;19.90;60.00;;;;;;5064655;28;19925;-65
2024/01/01 08:10:43;;;;;;;;;;;19.90;60.00;;;;;;5057098;28;19948;-66
2024/01/01 08:13:08;;;;;;;;;;;19.90;60.00;;;;;;5052758;28;19932;-66
2024/01/01 08:15:34;;;;;;;;;;;19.90;60.10;;;;;;5054050;28;19924;-66
2024/01/01 08:18:00;;;;;;;;;;;19.90;60.10;;;;;;5051655;28;19925;-66
2024/01/01 08:20:25;;;;;;;;;;;19.90;60.10;;;;;;5055161;28;20276;-66
2024/01/01 08:22:50;;;;;;;;;;;19.90;60.10;;;;;;5073742;28;19925;-64
2024/01/01 08:25:16;;;;;;;;;;;19.90;60.10;;;;;;5071736;28;19979;-64
2024/01/01 08:27:42;;;;;;;;;;;19.90;60.00;;;;;;5075774;28;20380;-66
2024/01/01 08:30:08;;;;;;;;;;;19.90;60.00;;;;;;5093714;28;19946;-64
2024/01/01 08:32:33;;;;;;;;;;;19.90;60.00;;;;;;5092430;28;19989;-62
2024/01/01 08:34:58;;;;;;;;;;;19.90;60.10;;;;;;5091561;28;20403;-62
2024/01/01 08:37:24;;;;;;;;;;;19.90;60.10;;;;;;5087286;28;19936;-63
2024/01/01 08:39:49;;;;;;;;;;;20.00;60.20;;;;;;5073741;28;19931;-63
2024/01/01 08:42:15;;;;;;;;;;;19.90;60.20;;;;;;5073655;28;20299;-63
2024/01/01 08:44:40;;;;;;;;;;;20.00;60.20;;;;;;5072668;28;19935;-64
2024/01/01 08:47:06;;;;;;;;;;;20.00;60.30;;;;;;5072775;28;19920;-63
2024/01/01 08:49:31;;;;;;;;;;;20.00;60.30;;;;;;5068632;28;19924;-64
2024/01/01 08:51:57;;;;;;;;;;;20.00;60.30;;;;;;5060569;28;19974;-62
2024/01/01 08:54:23;;;;;;;;;;;20.00;60.40;;;;;;5061437;28;20011;-62
2024/01/01 08:56:48;;;;;;;;;;;20.00;60.50;;;;;;5063198;28;19928;-63
2024/01/01 08:59:15;;;;;;;;;;;20.00;60.50;;;;;;5064787;28;19925;-63
2024/01/01 09:01:47;;;;;;;;;;;20.00;60.60;;;;;;5052361;28;19924;-63
2024/01/01 09:04:13;;;;;;;;;;;20.00;60.60;;;;;;5066407;28;19971;-64
2024/01/01 09:06:39;;;;;;;;;;;20.00;60.60;;;;;;5053014;28;19920;-63
2024/01/01 09:09:04;;;;;;;;;;;20.00;60.60;;;;;;5055579;28;19931;-63
2024/01/01 09:11:30;;;;;;;;;;;20.00;60.70;;;;;;5071592;28;19928;-63
2024/01/01 09:13:55;;;;;;;;;;;20.10;60.70;;;;;;5071181;28;19931;-62
2024/01/01 09:16:22;;;;;;;;;;;20.10;60.70;;;;;;5071321;28;19924;-62
2024/01/01 09:18:47;;;;;;;;;;;20.10;60.70;;;;;;5057097;28;19931;-65
2024/01/01 09:21:14;;;;;;;;;;;20.10;60.70;;;;;;5049600;28;19925;-64
2024/01/01 09:23:39;;;;;;;;;;;20.10;60.80;;;;;;5053631;28;19947;-64
2024/01/01 09:26:05;;;;;;;;;;;20.10;60.50;;;;;;5055945;28;20375;-63
2024/01/01 09:28:31;;;;;;;;;;;20.10;60.60;;;;;;5051189;28;20023;-63
2024/01/01 09:30:57;;;;;;;;;;;20.10;60.70;;;;;;5052911;28;19925;-64
2024/01/01 09:33:22;;;;;;;;;;;20.10;60.70;;;;;;5052120;28;20015;-64
2024/01/01 09:35:48;;;;;;;;;;;20.10;60.70;;;;;;5072061;28;19931;-62
2024/01/01 09:38:13;;;;;;;;;;;20.10;60.70;;;;;;5092383;28;19928;-63
2024/01/01 09:40:39;;;;;;;;;;;20.10;60.70;;;;;;5093159;28;19931;-65
2024/01/01 09:43:04;;;;;;;;;;;20.10;60.70;;;;;;5055205;28;20388;-65
2024/01/01 09:45:30;;;;;;;;;;;20.20;60.70;;;;;;5072456;28;19932;-65
2024/01/01 09:47:55;;;;;;;;;;;20.20;60.70;;;;;;5078636;28;20264;-64
2024/01/01 09:50:21;;;;;;;;;;;20.10;60.70;;;;;;5053942;28;19928;-63
2024/01/01 09:52:46;;;;;;;;;;;20.20;60.70;;;;;;5052658;28;19924;-66
2024/01/01 09:55:12;;;;;;;;;;;20.20;60.70;;;;;;5057769;28;19975;-66
2024/01/01 09:57:39;;;;;;;;;;;20.10;60.70;;;;;;5082486;28;19975;-67
2024/01/01 10:00:05;;;;;;;;;;;20.20;60.70;;;;;;5062506;28;19925;-67
2024/01/01 10:02:30;;;;;;;;;;;20.20;60.70;;;;;;5070874;28;20380;-66
2024/01/01 10:05:14;;;;;;;;;;;20.10;60.60;;;;;;5077806;28;19931;-67
2024/01/01 10:07:40;;;;;;;;;;;20.10;60.60;;;;;;5057043;28;19925;-66
2024/01/01 10:10:06;;;;;;;;;;;20.10;60.60;;;;;;5062685;28;19935;-67
2024/01/01 10:12:34;;;;;;;;;;;20.10;60.60;;;;;;5069949;28;19936;-67
2024/01/01 10:15:00;;;;;;;;;;;20.10;60.60;;;;;;5072417;28;19928;-66
2024/01/01 10:17:25;;;;;;;;;;;20.10;60.70;;;;;;5054144;28;20311;-66
2024/01/01 10:20:00;;;;;;;;;;;20.10;60.70;;;;;;5072321;28;19928;-66
2024/01/01 10:22:29;;;;;;;;;;;20.10;60.70;;;;;;5044330;28;20004;-66
2024/01/01 10:24:56;;;;;;;;;;;20.00;60.60;;;;;;5092216;28;19924;-66
2024/01/01 10:27:22;;;;;;;;;;;20.00;60.70;;;;;;5074325;28;20363;-66
2024/01/01 10:29:48;;;;;;;;;;;20.00;60.70;;;;;;5091577;28;20414;-65
2024/01/01 10:32:17;;;;;;;;;;;20.00;60.70;;;;;;5074032;28;19924;-65
2024/01/01 10:34:43;;;;;;;;;;;20.00;60.80;;;;;;5092470;28;20029;-65
2024/01/01 10:37:09;;;;;;;;;;;20.00;60.80;;;;;;5073175;28;19924;-65
2024/01/01 10:39:35;;;;;;;;;;;20.00;60.70;;;;;;5092226;28;19924;-66
2024/01/01 10:42:02;;;;;;;;;;;20.00;60.70;;;;;;5056584;28;19928;-68
2024/01/01 10:44:28;;;;;;;;;;;20.00;60.70;;;;;;5074906;28;19994;-68
2024/01/01 10:46:53;;;;;;;;;;;20.00;60.70;;;;;;5057177;28;19924;-67
2024/01/01 10:49:23;;;;;;;;;;;20.00;60.70;;;;;;5058038;28;19924;-70
2024/01/01 10:51:53;;;;;;;;;;;20.00;60.90;;;;;;5074581;28;20330;-69
2024/01/01 10:54:28;;;;;;;;;;;20.00;60.80;;;;;;5055287;28;20379;-64
2024/01/01 10:56:56;;;;;;;;;;;20.00;60.80;;;;;;5046480;28;19924;-66
2024/01/01 10:59:23;;;;;;;;;;;19.90;60.70;;;;;;5079326;28;19935;-68
2024/01/01 11:01:52;;;;;;;;;;;19.90;60.80;;;;;;5069001;28;19970;-67
2024/01/01 11:04:21;;;;;;;;;;;19.90;61.50;;;;;;5067898;28;19931;-67
2024/01/01 11:06:46;;;;;;;;;;;19.90;61.00;;;;;;5061670;28;19963;-68
2024/01/01 11:09:18;;;;;;;;;;;19.90;60.90;;;;;;5074762;28;19994;-69
2024/01/01 11:11:47;;;;;;;;;;;19.90;61.00;;;;;;5063234;28;19978;-67
2024/01/01 11:14:22;;;;;;;;;;;19.90;61.00;;;;;;5066074;28;19931;-66
2024/01/01 11:16:49;;;;;;;;;;;19.90;61.10;;;;;;5084205;28;19924;-67
2024/01/01 11:19:33;;;;;;;;;;;19.90;61.10;;;;;;5066817;28;19924;-67
2024/01/01 11:22:00;;;;;;;;;;;19.90;61.10;;;;;;5066946;28;19921;-66
2024/01/01 11:24:45;;;;;;;;;;;19.90;61.10;;;;;;5046692;28;19982;-66
2024/01/01 11:27:31;;;;;;;;;;;19.90;61.10;;;;;;5064611;28;19920;-66
2024/01/01 11:30:03;;;;;;;;;;;19.90;61.20;;;;;;5062121;28;20008;-64
2024/01/01 11:32:29;;;;;;;;;;;19.90;61.10;;;;;;5075093;28;19925;-65
2024/01/01 11:35:08;;;;;;;;;;;19.90;61.10;;;;;;5056208;28;19931;-65
2024/01/01 11:37:34;;;;;;;;;;;19.90;61.20;;;;;;5056626;28;20333;-66
2024/01/01 11:39:59;;;;;;;;;;;19.80;61.10;;;;;;5074898;28;20019;-66
2024/01/01 11:42:25;;;;;;;;;;;19.80;61.10;;;;;;5056607;28;20019;-66
2024/01/01 11:45:03;;;;;;;;;;;19.80;61.10;;;;;;5075190;28;19974;-66
2024/01/01 11:47:29;;;;;;;;;;;19.80;61.10;;;;;;5057408;28;20395;-66
2024/01/01 11:49:54;;;;;;;;;;;19.80;61.20;;;;;;5073138;28;19924;-65
2024/01/01 11:52:20;;;;;;;;;;;19.80;61.10;;;;;;5067665;28;19974;-67
2024/01/01 11:54:47;;;;;;;;;;;19.80;61.20;;;;;;5074888;28;19924;-66
2024/01/01 11:57:13;;;;;;;;;;;19.80;61.20;;;;;;5072589;28;19978;-67
2024/01/01 11:59:38;;;;;;;;;;;19.80;61.90;;;;;;5091155;28;19924;-67
2024/01/01 12:02:04;;;;;;;;;;;19.80;61.40;;;;;;5093536;28;19948;-67
2024/01/01 12:04:29;;;;;;;;;;;19.80;61.50;;;;;;5042769;28;19930;-67
2024/01/01 12:06:55;;;;;;;;;;;19.80;61.70;;;;;;5056027;28;20021;-67
2024/01/01 12:09:20;;;;;;;;;;;19.90;61.80;;;;;;5070273;28;19983;-67
2024/01/01 12:11:46;;;;;;;;;;;19.90;61.80;;;;;;5072524;28;20007;-64
2024/01/01 12:14:11;;;;;;;;;;;19.90;61.70;;;;;;5078697;28;19947;-68
2024/01/01 12:16:37;;;;;;;;;;;19.80;61.50;;;;;;5081622;28;19924;-71
2024/01/01 12:19:04;;;;;;;;;;;19.80;61.60;;;;;;5092588;28;19978;-66
2024/01/01 12:21:39;;;;;;;;;;;19.90;61.70;;;;;;5061075;28;19924;-65
2024/01/01 12:24:05;;;;;;;;;;;19.80;61.60;;;;;;5055884;28;20050;-63
2024/01/01 12:26:31;;;;;;;;;;;19.90;61.70;;;;;;5039668;28;19928;-68
2024/01/01 12:29:16;;;;;;;;;;;19.90;61.70;;;;;;5074397;28;19924;-70
2024/01/01 12:31:42;;;;;;;;;;;19.90;61.70;;;;;;5083605;28;19928;-65
2024/01/01 12:34:08;;;;;;;;;;;19.90;61.40;;;;;;5094216;28;20014;-65
2024/01/01 12:36:34;;;;;;;;;;;19.90;61.30;;;;;;5093946;28;20065;-64
2024/01/01 12:39:00;;;;;;;;;;;19.90;61.20;;;;;;5057837;28;19961;-65
2024/01/01 12:41:25;;;;;;;;;;;19.90;61.30;;;;;;5073863;28;20019;-64
2024/01/01 12:43:51;;;;;;;;;;;19.90;61.40;;;;;;5074040;28;19943;-65
2024/01/01 12:46:16;;;;;;;;;;;19.90;61.40;;;;;;5074126;28;19924;-65
2024/01/01 12:48:45;;;;;;;;;;;19.90;61.40;;;;;;5065651;28;19927;-65
2024/01/01 12:51:13;;;;;;;;;;;19.90;61.40;;;;;;5080289;28;19976;-66
2024/01/01 12:53:38;;;;;;;;;;;20.00;61.60;;;;;;5066224;28;19931;-64
2024/01/01 12:56:04;;;;;;;;;;;20.00;61.70;;;;;;5091986;28;20019;-65
2024/01/01 12:58:30;;;;;;;;;;;19.90;61.70;;;;;;5093510;28;20303;-65
2024/01/01 13:00:56;;;;;;;;;;;20.00;61.90;;;;;;5058103;28;19924;-65
2024/01/01 13:03:22;;;;;;;;;;;20.00;61.90;;;;;;5086471;28;20022;-67
2024/01/01 13:05:47;;;;;;;;;;;20.00;61.90;;;;;;5092956;28;19975;-65
2024/01/01 13:08:13;;;;;;;;;;;20.00;61.90;;;;;;5071438;28;19924;-65
2024/01/01 13:10:39;;;;;;;;;;;20.00;62.00;;;;;;5065337;28;19924;-65
2024/01/01 13:13:04;;;;;;;;;;;20.00;62.00;;;;;;5070115;28;19929;-65
2024/01/01 13:15:32;;;;;;;;;;;20.00;62.00;;;;;;5072895;28;19934;-65
2024/01/01 13:17:57;;;;;;;;;;;20.00;62.00;;;;;;5054562;28;20011;-64
2024/01/01 13:20:23;;;;;;;;;;;20.10;62.10;;;;;;5054876;28;20070;-64
2024/01/01 13:22:48;;;;;;;;;;;20.10;62.10;;;;;;5073976;28;20391;-65
2024/01/01 13:25:14;;;;;;;;;;;20.10;62.00;;;;;;5080544;28;20372;-65
2024/01/01 13:27:39;;;;;;;;;;;20.10;62.10;;;;;;5066551;28;19931;-64
2024/01/01 13:30:05;;;;;;;;;;;20.10;62.10;;;;;;5072453;28;19925;-64
2024/01/01 13:32:30;;;;;;;;;;;20.10;62.10;;;;;;5072959;28;20426;-64
2024/01/01 13:34:56;;;;;;;;;;;20.10;62.20;;;;;;5081165;28;19932;-64
2024/01/01 13:37:21;;;;;;;;;;;20.20;62.10;;;;;;5061814;28;20015;-66
2024/01/01 13:39:49;;;;;;;;;;;20.20;62.10;;;;;;5060065;28;20449;-67
2024/01/01 13:42:14;;;;;;;;;;;20.20;62.20;;;;;;5071758;28;20414;-66
2024/01/01 13:44:40;;;;;;;;;;;20.20;62.20;;;;;;5083841;28;19925;-68
2024/01/01 13:47:05;;;;;;;;;;;20.20;62.20;;;;;;5062126;28;20334;-66
2024/01/01 13:49:33;;;;;;;;;;;20.20;62.20;;;;;;5072190;28;20011;-65
2024/01/01 13:51:58;;;;;;;;;;;20.20;62.20;;;;;;5054619;28;19931;-64
2024/01/01 13:54:25;;;;;;;;;;;20.20;62.20;;;;;;5072491;28;19929;-64
2024/01/01 13:56:50;;;;;;;;;;;20.20;62.20;;;;;;5071511;28;20292;-68
2024/01/01 13:59:16;;;;;;;;;;;20.20;62.20;;;;;;5059594;28;19931;-64
2024/01/01 14:01:41;;;;;;;;;;;20.20;62.10;;;;;;5062091;28;19935;-63
2024/01/01 14:04:07;;;;;;;;;;;20.20;62.20;;;;;;5058634;28;20465;-64
2024/01/01 14:06:32;;;;;;;;;;;20.30;62.40;;;;;;5054923;28;19958;-66
2024/01/01 14:08:58;;;;;;;;;;;20.30;62.40;;;;;;5054279;28;19925;-65
2024/01/01 14:11:23;;;;;;;;;;;20.30;62.20;;;;;;5070926;28;19966;-67